Time,TemperatureF,DewpointF,PressureIn,WindDirection,WindDirectionDegrees,WindSpeedMPH,WindSpeedGustMPH,Humidity,HourlyPrecipIn,Conditions,Clouds,dailyrainin,SoftwareType,DateUTC
2013-02-16 00:00:00,28.2,28.2,19.99,NNW,339,0.0,9.0,100,0.00,,---,0.00,VWS V13.00,2013-02-16 05:00:00,
2013-02-16 00:30:00,28.1,28.1,20.00,WNW,289,4.0,16.0,100,0.00,,---,0.00,VWS V13.00,2013-02-16 05:30:00,
2013-02-16 01:00:00,26.9,26.9,20.00,West,272,14.0,15.0,100,0.00,,---,0.00,VWS V13.00,2013-02-16 06:00:00,
2013-02-16 01:30:00,26.7,26.7,19.99,WNW,284,6.0,15.0,100,0.00,,---,0.00,VWS V13.00,2013-02-16 06:30:00,
2013-02-16 02:00:00,26.7,26.7,19.99,NNW,328,3.0,7.0,100,0.00,,---,0.00,VWS V13.00,2013-02-16 07:00:00,
2013-02-16 02:30:00,26.5,26.5,20.00,WNW,301,4.0,6.0,100,0.00,,---,0.00,VWS V13.00,2013-02-16 07:30:00,
2013-02-16 03:00:00,26.2,26.2,19.99,West,279,3.0,8.0,100,0.00,,---,0.00,VWS V13.00,2013-02-16 08:00:00,
2013-02-16 04:30:00,25.7,25.7,19.99,WNW,299,5.0,7.0,100,0.00,,---,0.00,VWS V13.00,2013-02-16 09:30:00,
2013-02-16 05:00:00,25.5,25.5,19.99,NW,323,3.0,9.0,100,0.00,,---,0.00,VWS V13.00,2013-02-16 10:00:00,
2013-02-16 05:30:00,25.5,25.5,19.99,WNW,303,3.0,6.0,100,0.00,,---,0.00,VWS V13.00,2013-02-16 10:30:00,
2013-02-16 06:00:00,25.5,25.5,19.99,WNW,303,2.0,6.0,100,0.00,,---,0.00,VWS V13.00,2013-02-16 11:00:00,
2013-02-16 06:30:00,24.9,24.9,20.00,NW,304,3.0,5.0,100,0.00,,---,0.00,VWS V13.00,2013-02-16 11:30:00,
2013-02-16 07:00:00,24.7,24.7,19.99,West,274,3.0,8.0,100,0.00,,---,0.00,VWS V13.00,2013-02-16 12:00:00,
2013-02-16 07:30:00,24.0,24.0,19.99,West,275,6.0,9.0,100,0.00,,---,0.00,VWS V13.00,2013-02-16 12:30:00,
2013-02-16 08:00:00,24.3,24.3,19.99,WNW,290,5.0,11.0,100,0.00,,---,0.00,VWS V13.00,2013-02-16 13:00:00,
2013-02-16 08:30:00,25.0,25.0,19.99,NW,324,5.0,10.0,100,0.00,,---,0.00,VWS V13.00,2013-02-16 13:30:00,
2013-02-16 09:00:00,26.1,26.1,20.00,West,266,4.0,11.0,100,0.00,,---,0.00,VWS V13.00,2013-02-16 14:00:00,
2013-02-16 09:30:00,26.3,26.3,19.99,West,273,7.0,9.0,100,0.00,,---,0.00,VWS V13.00,2013-02-16 14:30:00,
2013-02-16 10:00:00,25.5,25.5,19.99,NW,318,3.0,9.0,100,0.00,,---,0.00,VWS V13.00,2013-02-16 15:00:00,
2013-02-16 10:30:00,26.2,26.2,19.99,NNW,347,2.0,7.0,100,0.00,,---,0.00,VWS V13.00,2013-02-16 15:30:00,
2013-02-16 11:00:00,27.3,27.3,20.00,WNW,291,3.0,11.0,100,0.00,,---,0.00,VWS V13.00,2013-02-16 16:00:00,
2013-02-16 11:30:00,28.2,28.2,19.99,NW,307,5.0,13.0,100,0.00,,---,0.00,VWS V13.00,2013-02-16 16:30:00,
2013-02-16 12:00:00,28.1,28.1,19.99,WNW,285,5.0,13.0,100,0.00,,---,0.00,VWS V13.00,2013-02-16 17:00:00,
2013-02-16 12:30:00,28.6,28.6,19.99,NW,307,3.0,11.0,100,0.00,,---,0.00,VWS V13.00,2013-02-16 17:30:00,
2013-02-16 13:00:00,27.4,27.4,19.99,West,278,7.0,14.0,100,0.00,,---,0.00,VWS V13.00,2013-02-16 18:00:00,
2013-02-16 13:30:00,28.5,28.5,20.00,NW,308,6.0,15.0,100,0.00,,---,0.00,VWS V13.00,2013-02-16 18:30:00,
2013-02-16 14:00:00,29.4,29.4,19.99,WNW,295,4.0,12.0,100,0.00,,---,0.00,VWS V13.00,2013-02-16 19:00:00,
2013-02-16 14:30:00,30.5,30.5,19.99,West,270,10.0,14.0,100,0.00,,---,0.00,VWS V13.00,2013-02-16 19:30:00,
2013-02-16 15:00:00,29.4,29.4,20.00,West,273,6.0,15.0,100,0.00,,---,0.00,VWS V13.00,2013-02-16 20:00:00,
2013-02-16 15:30:00,26.1,26.1,20.00,West,278,8.0,16.0,100,0.00,,---,0.00,VWS V13.00,2013-02-16 20:30:00,
2013-02-16 16:00:00,26.3,26.3,19.99,NW,311,2.0,10.0,100,0.00,,---,0.00,VWS V13.00,2013-02-16 21:00:00,
2013-02-16 16:30:00,25.2,25.2,19.99,NNW,346,7.0,9.0,100,0.00,,---,0.00,VWS V13.00,2013-02-16 21:30:00,
2013-02-16 17:00:00,24.6,24.6,19.99,North,356,5.0,10.0,100,0.00,,---,0.00,VWS V13.00,2013-02-16 22:00:00,
2013-02-16 17:30:00,23.7,23.7,19.99,NNW,329,2.0,6.0,100,0.00,,---,0.00,VWS V13.00,2013-02-16 22:30:00,
2013-02-16 18:00:00,22.8,22.8,19.99,North,9,3.0,9.0,100,0.00,,---,0.00,VWS V13.00,2013-02-16 23:00:00,
2013-02-16 18:30:00,22.3,22.3,19.99,North,356,5.0,11.0,100,0.00,,---,0.00,VWS V13.00,2013-02-16 23:30:00,
2013-02-16 19:00:00,21.8,21.8,19.99,North,0,3.0,10.0,100,0.00,,---,0.00,VWS V13.00,2013-02-17 00:00:00,
2013-02-16 19:30:00,20.9,20.9,19.99,NNW,341,9.0,15.0,100,0.00,,---,0.00,VWS V13.00,2013-02-17 00:30:00,
2013-02-16 20:00:00,20.1,20.1,20.00,North,349,5.0,14.0,100,0.00,,---,0.00,VWS V13.00,2013-02-17 01:00:00,
2013-02-16 20:30:00,19.5,19.5,19.99,North,357,1.0,15.0,100,0.00,,---,0.00,VWS V13.00,2013-02-17 01:30:00,
2013-02-16 21:00:00,18.7,18.7,19.99,NNW,332,5.0,16.0,100,0.00,,---,0.00,VWS V13.00,2013-02-17 02:00:00,
2013-02-16 21:30:00,18.1,18.1,19.99,North,0,6.0,12.0,100,0.00,,---,0.00,VWS V13.00,2013-02-17 02:30:00,
2013-02-16 22:00:00,17.7,17.7,20.00,North,358,6.0,16.0,100,0.00,,---,0.00,VWS V13.00,2013-02-17 03:00:00,
2013-02-16 22:30:00,17.2,17.2,19.99,NNW,344,5.0,14.0,100,0.00,,---,0.00,VWS V13.00,2013-02-17 03:30:00,
2013-02-16 23:00:00,16.6,16.6,19.99,NNW,347,7.0,16.0,100,0.00,,---,0.00,VWS V13.00,2013-02-17 04:00:00,
2013-02-16 23:30:00,16.1,16.1,19.99,North,354,6.0,15.0,100,0.00,,---,0.00,VWS V13.00,2013-02-17 04:30:00,